Flight Track Log - Related Links

Times and Time Zones

All times are in EDT time to prevent confusion due to time zone crossing. See the FLG4262 flight status page for this flight to view local times or setup timezone preferences in your user account.

Time Position Orientation Groundspeed Altitude Reporting Facility
EDT Latitude Longitude Course Direction KTS MPH feet Rate Location/Type
Thu 03:51:48 PM 42.1925 -83.3539 84° East 164 189 1,300  Level Cleveland Center
Thu 03:52:25 PM 42.1606 -83.3606 189° South 211 243 2,100 1,884 Climbing Cleveland Center
Thu 03:53:14 PM 42.1172 -83.3592 179° South 202 232 4,000 1,967 Climbing Cleveland Center
Thu 03:53:26 PM 42.0975 -83.3603 182° South 261 300 4,100 2,323 Climbing Cleveland Center
Thu 03:54:16 PM 42.0461 -83.3358 161° South 253 291 6,400 2,951 Climbing Cleveland Center
Thu 03:54:27 PM 42.0386 -83.3125 113° Southeast 267 307 7,100 2,516 Climbing Cleveland Center
Thu 03:55:00 PM 42.2293 -82.7720 56° Northeast  Level Estimated
Thu 03:55:18 PM 42.0517 -83.2392 76° East 274 315 9,000  Level Cleveland Center
Thu 03:55:28 PM 42.0628 -83.2147 59° Northeast 271 312 9,600 1,161 Climbing Cleveland Center
Thu 03:56:00 PM 42.2330 -82.6266 94° East  Level Estimated
Thu 03:56:20 PM 42.0886 -83.1492 62° Northeast 286 329 10,200  Level Cleveland Center
Thu 03:57:00 PM 42.2450 -82.4820 84° East  Level FlightAware Approximate
Thu 03:57:22 PM 42.1381 -83.0231 62° Northeast 319 367 12,800  Level Cleveland Center
Thu 03:58:24 PM 42.1822 -82.9144 61° Northeast 332 382 14,400 1,500 Climbing Cleveland Center
Thu 03:59:26 PM 42.2283 -82.8017 61° Northeast 343 395 15,900 1,306 Climbing Cleveland Center
Thu 04:00:28 PM 42.2744 -82.6861 62° Northeast 351 404 17,100 1,065 Climbing Cleveland Center
Thu 04:01:30 PM 42.3217 -82.5656 62° Northeast 362 417 18,100 1,210 Climbing Cleveland Center
Thu 04:02:32 PM 42.3658 -82.4103 69° East 378 435 19,600 1,161 Climbing Cleveland Center
Thu 04:03:34 PM 42.3586 -82.2650 94° East 388 447 20,500 864 Climbing Cleveland Center
Thu 04:04:37 PM 42.3533 -82.1250 93° East 391 450 21,400 864 Climbing Cleveland Center
Thu 04:05:39 PM 42.3481 -81.9733 93° East 398 458 22,300 774 Climbing Cleveland Center
Thu 04:06:41 PM 42.3394 -81.7936 94° East 406 467 23,000 823 Climbing Cleveland Center
Thu 04:07:43 PM 42.3325 -81.6344 93° East 417 480 24,000 774 Climbing Cleveland Center
Thu 04:08:45 PM 42.3253 -81.4783 94° East 414 476 24,600 629 Climbing Cleveland Center
Thu 04:09:47 PM 42.3175 -81.3192 94° East 418 481 25,300 629 Climbing Cleveland Center
Thu 04:10:49 PM 42.3169 -81.1575 90° East 424 488 25,900 532 Climbing Cleveland Center
Thu 04:11:51 PM 42.3161 -80.9928 90° East 431 496 26,400 484 Climbing Cleveland Center
Thu 04:12:53 PM 42.3164 -80.8267 90° East 437 503 26,900 290 Climbing Cleveland Center
Thu 04:13:55 PM 42.3172 -80.6625 90° East 434 499 27,000 48 Climbing Cleveland Center
Thu 04:14:57 PM 42.3167 -80.4631 90° East 448 516 27,000  Level Cleveland Center
Thu 04:16:00 PM 42.3167 -80.2942 90° East 446 513 27,000  Level Cleveland Center
Thu 04:17:02 PM 42.3153 -80.1292 91° East 437 503 27,000  Level Cleveland Center
Thu 04:18:04 PM 42.3136 -79.9719 91° East 436 502 27,000  Level Cleveland Center
Thu 04:19:06 PM 42.3122 -79.8106 91° East 434 499 27,000 -97 Level Cleveland Center
Thu 04:20:08 PM 42.3097 -79.6172 91° East 433 498 26,800 -581 Descending Cleveland Center
Thu 04:21:10 PM 42.3075 -79.4528 91° East 440 506 25,800 -871 Descending Cleveland Center
Thu 04:22:12 PM 42.3047 -79.2844 91° East 450 518 25,000 -387 Descending Cleveland Center
Thu 04:23:14 PM 42.3025 -79.1200 91° East 440 506 25,000  Level Cleveland Center
Thu 04:24:16 PM 42.2992 -78.9589 92° East 431 496 25,000  Level Cleveland Center
Thu 04:25:18 PM 42.2972 -78.7839 91° East 420 483 25,000  Level Cleveland Center
Thu 04:26:20 PM 42.2936 -78.6281 92° East 418 481 25,000  Level Cleveland Center
Thu 04:27:22 PM 42.2903 -78.4747 92° East 414 476 25,000  Level Cleveland Center
Thu 04:28:25 PM 42.2872 -78.3231 92° East 409 471 25,000 -384 Level Cleveland Center
Thu 04:29:27 PM 42.2822 -78.1378 92° East 412 474 24,200 -871 Descending Cleveland Center
Thu 04:30:29 PM 42.2786 -77.9764 92° East 428 493 23,200 -968 Descending Cleveland Center
Thu 04:31:31 PM 42.2744 -77.8131 92° East 439 505 22,200 -968 Descending Cleveland Center
Thu 04:32:33 PM 42.2694 -77.6503 92° East 439 505 21,200 -1,065 Descending Cleveland Center
Thu 04:33:35 PM 42.2633 -77.4594 92° East 431 496 20,000 -1,065 Descending Cleveland Center
Thu 04:34:37 PM 42.2597 -77.3014 92° East 427 491 19,000 -968 Descending Cleveland Center
Thu 04:35:39 PM 42.2533 -77.1433 93° East 426 490 18,000 -1,000 Descending Cleveland Center
Thu 04:36:37 PM 42.2483 -76.9786 92° East 426 490 17,000 -1,462 Descending New York Center
Thu 04:37:38 PM 42.2417 -76.8239 93° East 426 490 15,100 -1,781 Descending New York Center
Thu 04:38:45 PM 42.2358 -76.6525 93° East 401 461 13,200 -1,615 Descending Cleveland Center
Thu 04:39:48 PM 42.2317 -76.5111 92° East 385 443 11,600 -1,488 Descending Cleveland Center
Thu 04:40:50 PM 42.2258 -76.3836 93° East 328 377 10,100 -1,500 Descending Cleveland Center
Thu 04:41:36 PM 42.2147 -76.3117 102° East 327 376 8,900 -1,682 Descending New York Center
Thu 04:42:37 PM 42.1942 -76.2119 106° East 294 338 7,100 -1,820 Descending New York Center
Thu 04:43:38 PM 42.1758 -76.1125 104° East 281 323 5,200 -1,563 Descending New York Center
Thu 04:44:36 PM 42.1444 -76.0261 116° Southeast 263 303 4,000 -661 Descending New York Center
Thu 04:45:36 PM 42.1072 -75.9700 132° Southeast 234 269 3,900 -347 Descending New York Center
Thu 04:46:37 PM 42.1242 -75.9183 66° East 170 196 3,300 -689 Descending New York Center
Thu 04:47:38 PM 42.1625 -75.9436 334° Northwest 81 93 2,500 -645 Descending New York Center
Thu 04:48:38 PM 42.1933 -75.9544 345° North 86 99 2,000 -500 Descending New York Center

Login

Don't have an account? Register now (free) for customized features, flight alerts, and more!